createdAt,value
2019-02-05T00:00:44.643Z,66.60
2019-02-05T00:03:14.554Z,66.70
2019-02-05T00:05:42.858Z,66.60
2019-02-05T00:08:11.271Z,66.80
2019-02-05T00:10:39.531Z,66.80
2019-02-05T00:13:07.799Z,66.80
2019-02-05T00:15:36.166Z,66.70
2019-02-05T00:18:04.494Z,66.80
2019-02-05T00:20:32.838Z,66.60
2019-02-05T00:23:01.094Z,66.60
2019-02-05T00:25:29.438Z,66.50
2019-02-05T00:27:57.691Z,66.50
2019-02-05T00:30:26.322Z,66.50
2019-02-05T00:32:54.627Z,66.30
2019-02-05T00:35:22.987Z,66.30
2019-02-05T00:37:51.265Z,66.50
2019-02-05T00:40:19.586Z,66.00
2019-02-05T00:42:47.860Z,66.10
2019-02-05T00:45:17.835Z,65.80
2019-02-05T00:47:46.107Z,66.00
2019-02-05T00:50:18.603Z,65.90
2019-02-05T00:52:46.946Z,66.00
2019-02-05T00:55:22.323Z,66.00
2019-02-05T00:57:50.667Z,66.10
2019-02-05T01:00:34.837Z,66.10
2019-02-05T01:03:03.188Z,66.00
2019-02-05T01:05:31.516Z,66.10
2019-02-05T01:07:59.855Z,66.20
2019-02-05T01:10:28.175Z,66.20
2019-02-05T01:12:56.920Z,66.40
2019-02-05T01:15:25.764Z,66.50
2019-02-05T01:17:54.100Z,67.20
2019-02-05T01:20:23.086Z,66.70
2019-02-05T01:22:51.382Z,66.80
2019-02-05T01:25:20.760Z,66.90
2019-02-05T01:27:49.391Z,66.90
2019-02-05T01:30:24.665Z,67.10
2019-02-05T01:32:52.967Z,67.10
2019-02-05T01:35:21.338Z,67.20
2019-02-05T01:37:49.666Z,67.90
2019-02-05T01:40:19.887Z,67.30
2019-02-05T01:42:48.160Z,67.30
2019-02-05T01:45:17.767Z,67.40
2019-02-05T01:47:46.092Z,67.30
2019-02-05T01:50:17.467Z,67.40
2019-02-05T01:52:45.719Z,67.50
2019-02-05T01:55:13.978Z,67.50
2019-02-05T01:57:42.615Z,67.50
2019-02-05T02:00:17.319Z,67.60
2019-02-05T02:02:45.624Z,67.60
2019-02-05T02:05:13.956Z,67.80
2019-02-05T02:07:42.309Z,67.80
2019-02-05T02:10:22.991Z,67.90
2019-02-05T02:12:51.331Z,67.90
2019-02-05T02:15:19.618Z,67.90
2019-02-05T02:17:47.890Z,67.90
2019-02-05T02:20:20.974Z,68.10
2019-02-05T02:22:49.306Z,68.10
2019-02-05T02:25:17.672Z,68.10
2019-02-05T02:27:46.370Z,68.20
2019-02-05T02:30:32.949Z,68.10
2019-02-05T02:33:01.267Z,68.20
2019-02-05T02:35:29.555Z,68.30
2019-02-05T02:37:57.881Z,68.50
2019-02-05T02:40:26.143Z,68.50
2019-02-05T02:42:54.516Z,68.50
2019-02-05T02:45:22.780Z,68.60
2019-02-05T02:47:51.211Z,68.50
2019-02-05T02:50:21.328Z,68.60
2019-02-05T02:52:50.124Z,68.50
2019-02-05T02:55:18.448Z,68.50
2019-02-05T02:57:46.734Z,68.60
2019-02-05T03:00:22.007Z,68.90
2019-02-05T03:02:51.782Z,68.90
2019-02-05T03:05:22.458Z,69.10
2019-02-05T03:07:50.871Z,69.30
2019-02-05T03:10:26.935Z,69.40
2019-02-05T03:12:55.444Z,69.60
2019-02-05T03:15:23.787Z,69.80
2019-02-05T03:17:52.050Z,70.10
2019-02-05T03:20:20.439Z,70.20
2019-02-05T03:22:48.782Z,70.40
2019-02-05T03:25:22.014Z,70.50
2019-02-05T03:28:00.016Z,70.40
2019-02-05T03:30:22.048Z,70.40
2019-02-05T03:32:50.502Z,70.40
2019-02-05T03:35:19.260Z,70.50
2019-02-05T03:37:47.659Z,70.60
2019-02-05T03:40:31.423Z,70.70
2019-02-05T03:42:59.801Z,70.80
2019-02-05T03:45:29.057Z,70.80
2019-02-05T03:48:04.323Z,71.00
2019-02-05T03:50:35.907Z,70.90
2019-02-05T03:53:07.808Z,70.80
2019-02-05T03:55:42.380Z,70.80
2019-02-05T03:58:30.610Z,70.80
2019-02-05T04:01:19.788Z,70.90
2019-02-05T04:04:09.392Z,70.80
2019-02-05T04:06:53.090Z,70.90
2019-02-05T04:09:48.486Z,71.00
2019-02-05T04:12:22.944Z,71.00
2019-02-05T04:15:06.423Z,71.00
2019-02-05T04:17:46.766Z,71.10
2019-02-05T04:20:27.160Z,71.10
2019-02-05T04:23:02.512Z,71.10
2019-02-05T04:26:00.623Z,70.80
2019-02-05T04:28:32.171Z,71.00
2019-02-05T04:31:09.688Z,71.00
2019-02-05T04:33:46.903Z,71.00
2019-02-05T04:36:38.887Z,71.10
2019-02-05T04:39:22.310Z,71.20
2019-02-05T04:42:02.422Z,71.20
2019-02-05T04:44:45.797Z,71.20
2019-02-05T04:47:33.895Z,71.20
2019-02-05T04:50:26.380Z,71.30
2019-02-05T04:53:18.826Z,71.20
2019-02-05T04:55:52.948Z,71.10
2019-02-05T04:58:30.254Z,71.10
2019-02-05T05:01:04.231Z,71.40
2019-02-05T05:04:02.153Z,71.40
2019-02-05T05:06:57.671Z,71.40
2019-02-05T05:09:43.792Z,71.30
2019-02-05T05:12:12.100Z,71.30
2019-02-05T05:14:40.947Z,71.30
2019-02-05T05:17:09.305Z,71.40
2019-02-05T05:19:37.652Z,71.40
2019-02-05T05:22:06.011Z,71.40
2019-02-05T05:24:34.555Z,71.40
2019-02-05T05:27:02.820Z,71.50
2019-02-05T05:29:33.185Z,71.40
2019-02-05T05:32:01.166Z,71.50
2019-02-05T05:34:29.559Z,71.40
2019-02-05T05:36:57.009Z,71.50
2019-02-05T05:39:25.407Z,71.50
2019-02-05T05:41:53.717Z,71.50
2019-02-05T05:44:22.067Z,71.50
2019-02-05T05:46:50.426Z,71.50
2019-02-05T05:49:19.067Z,71.50
2019-02-05T05:51:47.339Z,71.50
2019-02-05T05:54:15.594Z,71.50
2019-02-05T05:56:43.958Z,71.60
2019-02-05T05:59:12.220Z,71.70
2019-02-05T06:01:40.556Z,71.60
2019-02-05T06:04:08.830Z,71.90
2019-02-05T06:06:37.172Z,71.70
2019-02-05T06:09:07.384Z,71.70
2019-02-05T06:11:35.721Z,71.70
2019-02-05T06:14:04.058Z,71.70
2019-02-05T06:16:32.327Z,71.60
2019-02-05T06:19:00.680Z,71.60
2019-02-05T06:21:29.015Z,71.70
2019-02-05T06:24:16.722Z,71.70
2019-02-05T06:26:45.059Z,71.70
2019-02-05T06:29:13.331Z,71.80
2019-02-05T06:31:41.692Z,71.70
2019-02-05T06:34:10.030Z,71.80
2019-02-05T06:36:38.394Z,71.80
2019-02-05T06:39:07.891Z,71.70
2019-02-05T06:41:36.634Z,71.70
2019-02-05T06:44:05.023Z,71.70
2019-02-05T06:46:33.376Z,71.80
2019-02-05T06:49:01.706Z,71.80
2019-02-05T06:51:30.650Z,71.80
2019-02-05T06:53:59.589Z,71.80
2019-02-05T06:56:28.027Z,71.70
2019-02-05T06:58:56.395Z,71.80
2019-02-05T07:01:24.730Z,71.90
2019-02-05T07:03:53.111Z,71.80
2019-02-05T07:06:21.444Z,71.80
2019-02-05T07:08:49.840Z,71.90
2019-02-05T07:11:18.597Z,72.00
2019-02-05T07:13:46.955Z,72.00
2019-02-05T07:16:15.295Z,72.00
2019-02-05T07:18:43.618Z,72.00
2019-02-05T07:21:11.971Z,72.00
2019-02-05T07:23:59.734Z,72.00
2019-02-05T07:26:28.390Z,71.90
2019-02-05T07:28:58.981Z,72.00
2019-02-05T07:31:26.743Z,72.00
2019-02-05T07:33:55.076Z,72.10
2019-02-05T07:36:23.462Z,72.00
2019-02-05T07:38:51.819Z,72.10
2019-02-05T07:41:20.193Z,72.10
2019-02-05T07:43:48.952Z,72.10
2019-02-05T07:46:17.382Z,72.10
2019-02-05T07:48:45.745Z,72.00
2019-02-05T07:51:14.113Z,72.10
2019-02-05T07:53:42.456Z,72.10
2019-02-05T07:56:12.917Z,72.10
2019-02-05T07:58:40.844Z,72.10
2019-02-05T08:01:09.170Z,72.20
2019-02-05T08:03:37.548Z,72.10
2019-02-05T08:06:05.891Z,72.10
2019-02-05T08:08:34.268Z,72.20
2019-02-05T08:11:02.602Z,72.30
2019-02-05T08:13:30.900Z,72.10
2019-02-05T08:15:59.234Z,72.10
2019-02-05T08:18:27.648Z,72.10
2019-02-05T08:20:56.008Z,72.10
2019-02-05T08:23:24.746Z,72.10
2019-02-05T08:25:53.094Z,72.10
2019-02-05T08:28:21.348Z,72.00
2019-02-05T08:30:49.806Z,72.00
2019-02-05T08:33:18.147Z,72.00
2019-02-05T08:35:46.540Z,72.10
2019-02-05T08:38:14.877Z,72.10
2019-02-05T08:40:43.802Z,72.20
2019-02-05T08:43:12.097Z,72.30
2019-02-05T08:45:40.456Z,72.30
2019-02-05T08:48:11.197Z,72.30
2019-02-05T08:50:39.512Z,72.10
2019-02-05T08:53:07.868Z,72.10
2019-02-05T08:55:36.256Z,72.30
2019-02-05T08:58:07.981Z,72.10
2019-02-05T09:00:40.705Z,72.00
2019-02-05T09:03:10.707Z,71.70
2019-02-05T09:05:39.235Z,72.00
2019-02-05T09:08:07.638Z,71.80
2019-02-05T09:10:37.919Z,71.70
2019-02-05T09:13:06.413Z,71.50
2019-02-05T09:15:34.787Z,71.40
2019-02-05T09:18:03.152Z,71.60
2019-02-05T09:20:31.524Z,71.60
2019-02-05T09:22:59.908Z,71.60
2019-02-05T09:25:28.276Z,71.50
2019-02-05T09:27:56.605Z,71.50
2019-02-05T09:30:30.766Z,71.60
2019-02-05T09:33:01.545Z,71.50
2019-02-05T09:35:29.935Z,71.60
2019-02-05T09:37:58.338Z,71.60
2019-02-05T09:40:28.557Z,71.70
2019-02-05T09:42:56.927Z,71.80
2019-02-05T09:45:25.570Z,71.80
2019-02-05T09:47:54.419Z,71.90
2019-02-05T09:50:22.794Z,71.90
2019-02-05T09:52:51.241Z,71.80
2019-02-05T09:55:20.650Z,71.80
2019-02-05T09:57:48.996Z,71.80
2019-02-05T10:00:20.515Z,71.80
2019-02-05T10:02:48.872Z,71.70
2019-02-05T10:05:19.692Z,71.50
2019-02-05T10:07:48.073Z,72.20
2019-02-05T10:10:18.577Z,71.60
2019-02-05T10:12:47.066Z,71.50
2019-02-05T10:15:20.867Z,71.20
2019-02-05T10:17:49.543Z,71.30
2019-02-05T10:20:18.824Z,71.60
2019-02-05T10:22:48.432Z,71.50
2019-02-05T10:25:17.405Z,71.30
2019-02-05T10:27:45.785Z,71.60
2019-02-05T10:30:17.657Z,71.70
2019-02-05T10:32:46.028Z,71.80
2019-02-05T10:35:14.400Z,71.80
2019-02-05T10:37:42.876Z,71.60
2019-02-05T10:40:13.174Z,71.80
2019-02-05T10:42:44.101Z,71.80
2019-02-05T10:45:17.355Z,71.70
2019-02-05T10:47:46.036Z,71.40
2019-02-05T10:50:16.345Z,71.00
2019-02-05T10:52:45.086Z,71.40
2019-02-05T10:55:18.539Z,70.90
2019-02-05T10:57:48.144Z,71.00
2019-02-05T11:00:25.785Z,70.40
2019-02-05T11:02:54.651Z,70.60
2019-02-05T11:05:25.528Z,71.00
2019-02-05T11:07:53.948Z,70.60
2019-02-05T11:10:22.335Z,70.50
2019-02-05T11:12:50.659Z,70.70
2019-02-05T11:15:21.484Z,70.20
2019-02-05T11:17:49.802Z,70.50
2019-02-05T11:20:20.751Z,69.30
2019-02-05T11:22:49.693Z,70.30
2019-02-05T11:25:18.091Z,70.50
2019-02-05T11:27:46.414Z,70.20
2019-02-05T11:30:23.467Z,70.30
2019-02-05T11:32:53.000Z,69.70
2019-02-05T11:35:21.539Z,69.90
2019-02-05T11:37:50.283Z,69.80
2019-02-05T11:40:21.796Z,67.90
2019-02-05T11:42:50.136Z,67.90
2019-02-05T11:45:19.502Z,66.30
2019-02-05T11:47:49.422Z,66.80
2019-02-05T11:50:18.457Z,66.40
2019-02-05T11:52:46.803Z,66.30
2019-02-05T11:55:21.152Z,66.10
2019-02-05T11:57:49.490Z,65.20
2019-02-05T12:00:31.819Z,65.50
2019-02-05T12:02:51.222Z,65.50
2019-02-05T12:05:19.607Z,65.50
2019-02-05T12:07:48.015Z,65.90
2019-02-05T12:10:16.646Z,65.90
2019-02-05T12:12:44.982Z,65.90
2019-02-05T12:15:17.003Z,66.00
2019-02-05T12:17:45.318Z,65.00
2019-02-05T12:20:34.735Z,64.90
2019-02-05T12:23:03.371Z,65.40
2019-02-05T12:25:31.684Z,65.00
2019-02-05T12:28:00.039Z,64.70
2019-02-05T12:30:44.573Z,64.40
2019-02-05T12:33:04.808Z,64.00
2019-02-05T12:35:33.163Z,64.40
2019-02-05T12:38:02.005Z,64.60
2019-02-05T12:40:30.268Z,64.40
2019-02-05T12:42:58.617Z,64.60
2019-02-05T12:45:30.197Z,64.20
2019-02-05T12:47:58.556Z,64.40
2019-02-05T12:50:35.711Z,64.70
2019-02-05T12:53:04.675Z,64.70
2019-02-05T12:55:33.072Z,64.80
2019-02-05T12:58:01.430Z,64.60
2019-02-05T13:00:37.483Z,64.60
2019-02-05T13:03:07.311Z,64.80
2019-02-05T13:05:35.572Z,65.00
2019-02-05T13:08:05.426Z,65.00
2019-02-05T13:10:42.794Z,65.10
2019-02-05T13:13:11.170Z,65.20
2019-02-05T13:15:39.498Z,65.30
2019-02-05T13:18:07.959Z,65.70
2019-02-05T13:20:36.642Z,66.00
2019-02-05T13:23:06.047Z,66.30
2019-02-05T13:25:34.721Z,66.20
2019-02-05T13:28:03.205Z,66.40
2019-02-05T13:30:34.084Z,66.10
2019-02-05T13:33:02.399Z,65.80
2019-02-05T13:35:31.180Z,65.80
2019-02-05T13:37:59.510Z,66.00
2019-02-05T13:40:28.619Z,66.00
2019-02-05T13:42:57.316Z,66.10
2019-02-05T13:45:37.071Z,66.30
2019-02-05T13:48:06.404Z,66.40
2019-02-05T13:50:34.731Z,65.90
2019-02-05T13:53:02.990Z,66.00
2019-02-05T13:55:36.387Z,66.10
2019-02-05T13:58:05.165Z,66.10
2019-02-05T14:00:35.719Z,66.00
2019-02-05T14:03:04.600Z,65.90
2019-02-05T14:05:32.860Z,65.50
2019-02-05T14:08:01.204Z,66.10
2019-02-05T14:10:32.531Z,66.10
2019-02-05T14:13:00.868Z,65.80
2019-02-05T14:15:37.876Z,65.80
2019-02-05T14:18:07.142Z,65.80
2019-02-05T14:20:35.612Z,65.30
2019-02-05T14:23:04.067Z,65.50
2019-02-05T14:25:32.734Z,65.50
2019-02-05T14:28:01.215Z,65.00
2019-02-05T14:30:38.588Z,65.00
2019-02-05T14:33:06.939Z,65.10
2019-02-05T14:35:35.278Z,65.20
2019-02-05T14:38:04.102Z,65.20
2019-02-05T14:40:32.452Z,65.10
2019-02-05T14:43:00.779Z,64.80
2019-02-05T14:45:29.057Z,65.00
2019-02-05T14:47:58.045Z,65.10
2019-02-05T14:50:29.192Z,65.10
2019-02-05T14:52:57.488Z,65.10
2019-02-05T14:55:25.825Z,65.20
2019-02-05T14:57:54.074Z,65.20
2019-02-05T15:00:35.366Z,65.40
2019-02-05T15:03:06.484Z,65.30
2019-02-05T15:05:34.114Z,65.40
2019-02-05T15:08:02.434Z,64.70
2019-02-05T15:10:30.740Z,66.00
2019-02-05T15:12:59.107Z,65.90
2019-02-05T15:15:28.675Z,65.70
2019-02-05T15:17:57.422Z,66.00
2019-02-05T15:20:37.263Z,66.00
2019-02-05T15:23:06.395Z,66.40
2019-02-05T15:25:34.759Z,66.30
2019-02-05T15:28:03.090Z,66.10
2019-02-05T15:30:33.369Z,66.00
2019-02-05T15:33:19.309Z,66.30
2019-02-05T15:36:04.334Z,66.40
2019-02-05T15:38:32.720Z,66.50
2019-02-05T15:41:00.970Z,66.60
2019-02-05T15:43:29.279Z,66.70
2019-02-05T15:45:57.693Z,66.70
2019-02-05T15:48:26.052Z,66.60
2019-02-05T15:50:54.345Z,66.70
2019-02-05T15:53:23.127Z,66.50
2019-02-05T15:55:51.479Z,66.80
2019-02-05T15:58:19.803Z,67.30
2019-02-05T16:00:48.070Z,66.60
2019-02-05T16:03:16.602Z,66.80
2019-02-05T16:05:44.881Z,66.80
2019-02-05T16:08:13.311Z,66.80
2019-02-05T16:10:42.025Z,66.80
2019-02-05T16:13:10.375Z,66.60
2019-02-05T16:15:38.670Z,66.70
2019-02-05T16:18:07.015Z,66.80
2019-02-05T16:20:35.313Z,66.90
2019-02-05T16:23:03.666Z,66.80
2019-02-05T16:25:32.010Z,66.90
2019-02-05T16:28:00.387Z,67.00
2019-02-05T16:30:30.652Z,67.00
2019-02-05T16:32:59.011Z,67.00
2019-02-05T16:35:27.359Z,67.10
2019-02-05T16:37:55.723Z,67.90
2019-02-05T16:40:27.355Z,67.10
2019-02-05T16:42:56.122Z,67.10
2019-02-05T16:45:27.019Z,67.10
2019-02-05T16:47:55.400Z,67.10
2019-02-05T16:50:41.656Z,67.10
2019-02-05T16:53:10.547Z,67.20
2019-02-05T16:55:38.932Z,67.30
2019-02-05T16:58:07.326Z,67.30
2019-02-05T17:00:36.675Z,67.40
2019-02-05T17:03:06.295Z,67.60
2019-02-05T17:05:37.487Z,67.60
2019-02-05T17:08:06.074Z,67.60
2019-02-05T17:10:34.458Z,67.70
2019-02-05T17:13:02.832Z,67.80
2019-02-05T17:15:31.241Z,68.00
2019-02-05T17:17:59.620Z,68.10
2019-02-05T17:20:29.868Z,68.40
2019-02-05T17:23:00.521Z,68.60
2019-02-05T17:25:29.023Z,68.90
2019-02-05T17:27:59.535Z,69.10
2019-02-05T17:30:33.230Z,69.20
2019-02-05T17:33:01.505Z,69.40
2019-02-05T17:35:29.839Z,69.50
2019-02-05T17:37:58.133Z,69.90
2019-02-05T17:40:26.933Z,70.00
2019-02-05T17:42:55.673Z,70.10
2019-02-05T17:45:32.477Z,70.30
2019-02-05T17:48:02.413Z,70.10
2019-02-05T17:50:30.822Z,70.60
2019-02-05T17:52:59.496Z,70.60
2019-02-05T17:55:27.879Z,70.90
2019-02-05T17:57:56.190Z,70.80
2019-02-05T18:00:31.613Z,71.00
2019-02-05T18:02:59.939Z,71.00
2019-02-05T18:05:28.203Z,71.00
2019-02-05T18:07:56.882Z,70.80
2019-02-05T18:10:29.352Z,70.80
2019-02-05T18:12:57.729Z,71.20
2019-02-05T18:15:50.187Z,71.50
2019-02-05T18:18:19.248Z,71.70
2019-02-05T18:20:47.628Z,71.90
2019-02-05T18:23:16.035Z,71.90
2019-02-05T18:25:44.431Z,71.80
2019-02-05T18:28:12.683Z,71.80
2019-02-05T18:30:40.955Z,72.10
2019-02-05T18:33:09.690Z,71.90
2019-02-05T18:35:37.964Z,72.00
2019-02-05T18:38:09.539Z,72.20
2019-02-05T18:40:37.831Z,72.30
2019-02-05T18:43:06.200Z,72.60
2019-02-05T18:45:34.540Z,72.60
2019-02-05T18:48:02.802Z,72.70
2019-02-05T18:50:31.209Z,72.60
2019-02-05T18:52:59.572Z,72.60
2019-02-05T18:55:31.095Z,72.60
2019-02-05T18:58:08.938Z,72.40
2019-02-05T19:00:40.376Z,72.40
2019-02-05T19:03:15.353Z,72.30
2019-02-05T19:05:39.080Z,72.30
2019-02-05T19:08:07.714Z,72.40
2019-02-05T19:10:36.069Z,72.40
2019-02-05T19:13:04.828Z,72.20
2019-02-05T19:15:57.291Z,72.00
2019-02-05T19:18:25.623Z,71.90
2019-02-05T19:20:53.995Z,71.80
2019-02-05T19:23:22.372Z,71.70
2019-02-05T19:25:52.372Z,71.60
2019-02-05T19:28:22.364Z,71.60
2019-02-05T19:30:52.407Z,71.40
2019-02-05T19:33:27.123Z,71.50
2019-02-05T19:35:50.772Z,71.40
2019-02-05T19:38:19.042Z,71.50
2019-02-05T19:40:57.224Z,71.80
2019-02-05T19:43:17.336Z,72.00
2019-02-05T19:46:05.588Z,72.00
2019-02-05T19:48:35.644Z,72.10
2019-02-05T19:51:04.638Z,73.00
2019-02-05T19:53:32.978Z,72.20
2019-02-05T19:56:01.329Z,72.40
2019-02-05T19:58:30.097Z,72.40
2019-02-05T20:00:58.468Z,72.50
2019-02-05T20:03:38.097Z,72.70
2019-02-05T20:05:56.855Z,72.80
2019-02-05T20:08:26.934Z,73.00
2019-02-05T20:10:55.411Z,72.90
2019-02-05T20:13:23.678Z,72.80
2019-02-05T20:15:52.496Z,72.80
2019-02-05T20:18:20.830Z,72.70
2019-02-05T20:20:49.088Z,72.80
2019-02-05T20:23:17.438Z,72.80
2019-02-05T20:25:45.688Z,73.00
2019-02-05T20:28:13.962Z,73.10
2019-02-05T20:30:42.335Z,73.20
2019-02-05T20:33:10.763Z,73.20
2019-02-05T20:35:58.511Z,73.10
2019-02-05T20:38:26.890Z,73.30
2019-02-05T20:40:55.233Z,73.10
2019-02-05T20:43:23.636Z,73.20
2019-02-05T20:45:51.993Z,73.30
2019-02-05T20:48:20.344Z,73.30
2019-02-05T20:50:48.824Z,73.30
2019-02-05T20:53:17.151Z,73.20
2019-02-05T20:55:45.402Z,73.10
2019-02-05T20:58:13.812Z,73.00
2019-02-05T21:00:42.172Z,73.00
2019-02-05T21:03:10.494Z,73.10
2019-02-05T21:05:39.280Z,73.10
2019-02-05T21:08:07.641Z,73.10
2019-02-05T21:10:36.017Z,73.40
2019-02-05T21:13:04.351Z,73.40
2019-02-05T21:15:32.606Z,73.40
2019-02-05T21:18:01.041Z,73.60
2019-02-05T21:20:33.954Z,73.60
2019-02-05T21:23:01.671Z,73.60
2019-02-05T21:25:30.035Z,73.40
2019-02-05T21:27:58.760Z,73.40
2019-02-05T21:30:28.178Z,73.50
2019-02-05T21:32:56.542Z,73.60
2019-02-05T21:35:24.867Z,73.70
2019-02-05T21:37:53.232Z,73.90
2019-02-05T21:40:27.635Z,74.00
2019-02-05T21:42:55.948Z,74.70
2019-02-05T21:45:32.150Z,74.20
2019-02-05T21:48:00.439Z,74.10
2019-02-05T21:50:28.787Z,74.10
2019-02-05T21:52:57.310Z,74.40
2019-02-05T21:55:27.076Z,74.40
2019-02-05T21:57:55.868Z,74.50
2019-02-05T22:00:29.902Z,74.40
2019-02-05T22:02:58.440Z,74.20
2019-02-05T22:05:27.798Z,74.40
2019-02-05T22:07:56.137Z,74.40
2019-02-05T22:10:24.748Z,74.40
2019-02-05T22:12:53.083Z,74.50
2019-02-05T22:15:21.750Z,74.70
2019-02-05T22:17:50.090Z,74.50
2019-02-05T22:20:25.781Z,74.80
2019-02-05T22:22:56.153Z,74.70
2019-02-05T22:25:26.055Z,74.80
2019-02-05T22:27:54.436Z,74.70
2019-02-05T22:30:28.081Z,74.70
2019-02-05T22:32:55.002Z,74.70
2019-02-05T22:35:23.390Z,74.70
2019-02-05T22:37:51.927Z,74.60
2019-02-05T22:40:22.546Z,74.50
2019-02-05T22:42:50.750Z,74.70
2019-02-05T22:45:21.083Z,74.50
2019-02-05T22:47:49.467Z,74.30
2019-02-05T22:50:20.141Z,74.30
2019-02-05T22:52:48.509Z,74.40
2019-02-05T22:55:16.908Z,74.40
2019-02-05T22:57:45.325Z,74.40
2019-02-05T23:00:29.758Z,74.60
2019-02-05T23:02:58.083Z,74.70
2019-02-05T23:05:55.271Z,74.70
2019-02-05T23:08:23.611Z,74.80
2019-02-05T23:11:05.109Z,74.80
2019-02-05T23:13:33.560Z,75.20
2019-02-05T23:16:01.924Z,75.10
2019-02-05T23:18:30.299Z,75.20
2019-02-05T23:20:58.645Z,75.20
2019-02-05T23:23:27.043Z,75.20
2019-02-05T23:25:55.359Z,75.10
2019-02-05T23:28:23.720Z,75.10
2019-02-05T23:30:52.279Z,75.20
2019-02-05T23:33:20.536Z,75.80
2019-02-05T23:35:48.883Z,75.10
2019-02-05T23:38:17.147Z,75.20
2019-02-05T23:40:45.431Z,75.00
2019-02-05T23:43:13.771Z,75.10
2019-02-05T23:45:42.115Z,75.20
2019-02-05T23:48:10.386Z,75.20
2019-02-05T23:50:38.714Z,75.20
2019-02-05T23:53:07.064Z,75.10
2019-02-05T23:55:35.403Z,75.20
2019-02-05T23:58:16.019Z,75.40
